Time;durP1;ratioP1;P1;durP2;ratioP2;P2;SDS_P1;SDS_P2;PMS_P1;PMS_P2;Temp;Humidity;BMP_temperature;BMP_pressure;BME280_temperature;BME280_humidity;BME280_pressure;Samples;Min_cycle;Max_cycle;Signal;HPM_P1;HPM_P2
2023/10/05 00:02:42;;;;;;;11.48;5.25;;;;;;;12.55;74.32;101630.63;4210612;27;20405;-64
2023/10/05 00:04:45;;;;;;;12.35;6.10;;;;;;;12.54;74.29;101624.53;4209186;28;20040;-64
2023/10/05 00:06:53;;;;;;;11.88;5.03;;;;;;;12.52;74.35;101623.59;4208386;28;20056;-64
2023/10/05 00:08:58;;;;;;;12.48;6.03;;;;;;;12.50;74.75;101632.22;4211653;28;20090;-64
2023/10/05 00:11:06;;;;;;;11.23;5.50;;;;;;;12.48;74.68;101629.56;4210810;28;20036;-64
2023/10/05 00:13:10;;;;;;;11.23;5.75;;;;;;;12.47;74.60;101633.03;4202883;28;20033;-64
2023/10/05 00:15:14;;;;;;;12.07;4.88;;;;;;;12.47;74.72;101630.44;4202138;28;20055;-64
2023/10/05 00:17:19;;;;;;;10.52;4.90;;;;;;;12.48;74.54;101626.97;4201450;28;20036;-64
2023/10/05 00:19:27;;;;;;;15.23;5.60;;;;;;;12.44;75.02;101630.34;4202886;28;20032;-63
2023/10/05 00:21:35;;;;;;;11.88;5.53;;;;;;;12.43;75.21;101632.94;4200154;28;20056;-63
2023/10/05 00:23:41;;;;;;;12.18;5.65;;;;;;;12.44;74.58;101627.75;4202944;28;20067;-64
2023/10/05 00:25:45;;;;;;;11.52;5.13;;;;;;;12.43;74.91;101625.97;4200464;28;20453;-64
2023/10/05 00:27:52;;;;;;;9.52;4.88;;;;;;;12.45;74.75;101626.00;4199798;28;20120;-63
2023/10/05 00:29:57;;;;;;;12.77;5.93;;;;;;;12.44;74.81;101624.25;4199740;28;20136;-63
2023/10/05 00:32:00;;;;;;;12.02;5.65;;;;;;;12.40;74.87;101618.94;4197668;28;20024;-63
2023/10/05 00:34:02;;;;;;;11.02;5.18;;;;;;;12.37;74.98;101610.19;4201138;28;20040;-63
2023/10/05 00:36:08;;;;;;;11.43;5.43;;;;;;;12.38;75.04;101612.81;4204516;28;20127;-64
2023/10/05 00:38:14;;;;;;;8.55;4.85;;;;;;;12.38;75.11;101606.72;4198597;28;20094;-63
2023/10/05 00:40:24;;;;;;;14.02;6.68;;;;;;;12.37;75.06;101607.56;4200816;28;20407;-63
2023/10/05 00:42:28;;;;;;;15.25;5.00;;;;;;;12.34;74.93;101599.69;4198568;28;20033;-63
2023/10/05 00:44:31;;;;;;;12.73;5.65;;;;;;;12.33;74.94;101595.31;4202784;28;20037;-63
2023/10/05 00:46:34;;;;;;;10.32;5.20;;;;;;;12.34;74.99;101597.06;4200748;28;20482;-63
2023/10/05 00:48:42;;;;;;;12.45;5.03;;;;;;;12.31;75.46;101591.75;4200576;28;20124;-63
2023/10/05 00:50:46;;;;;;;12.63;5.30;;;;;;;12.29;75.31;101591.72;4207179;28;20154;-63
2023/10/05 00:52:52;;;;;;;8.23;4.55;;;;;;;12.26;75.29;101585.56;4200728;28;20043;-63
2023/10/05 00:54:57;;;;;;;11.07;5.50;;;;;;;12.27;75.37;101588.19;4200282;28;20093;-63
2023/10/05 00:57:03;;;;;;;16.30;6.00;;;;;;;12.33;75.39;101585.75;4200308;28;20040;-63
2023/10/05 00:59:07;;;;;;;10.98;5.07;;;;;;;12.33;75.21;101590.94;4199303;28;20402;-63
2023/10/05 01:01:15;;;;;;;10.68;5.20;;;;;;;12.31;75.19;101591.75;4204783;28;20036;-63
2023/10/05 01:03:33;;;;;;;12.40;4.47;;;;;;;12.28;75.49;101579.53;4204394;28;20035;-63
2023/10/05 01:05:49;;;;;;;15.57;5.63;;;;;;;12.28;75.75;101581.25;4200981;28;20047;-63
2023/10/05 01:07:57;;;;;;;;;;;;;;;12.14;75.69;101592.22;4201143;28;20543;-63
2023/10/05 01:12:35;;;;;;;8.85;4.68;;;;;;;12.18;75.73;101599.28;4198668;28;20128;-64
2023/10/05 01:14:40;;;;;;;13.60;5.00;;;;;;;12.17;75.44;101600.09;4186734;28;20028;-63
2023/10/05 01:16:45;;;;;;;11.77;5.47;;;;;;;12.14;75.72;101589.59;4188711;28;20047;-63
2023/10/05 01:18:48;;;;;;;12.77;6.00;;;;;;;12.16;75.94;101580.13;4190857;28;20049;-63
2023/10/05 01:20:53;;;;;;;12.20;5.50;;;;;;;12.16;76.10;101576.59;4187696;28;20486;-63
2023/10/05 01:23:06;;;;;;;10.43;5.40;;;;;;;12.18;75.52;101586.25;4188449;28;20206;-63
2023/10/05 01:25:13;;;;;;;10.00;5.10;;;;;;;12.17;75.71;101584.47;4192427;28;20037;-64
2023/10/05 01:27:16;;;;;;;11.77;5.28;;;;;;;12.12;75.21;101580.88;4187527;28;20488;-63
2023/10/05 01:29:20;;;;;;;12.68;5.43;;;;;;;12.10;75.14;101582.53;4191116;28;20123;-63
2023/10/05 01:31:23;;;;;;;12.40;5.28;;;;;;;12.12;75.58;101593.00;4194982;28;20036;-64
2023/10/05 01:33:26;;;;;;;12.65;4.95;;;;;;;12.14;75.19;101581.78;4185483;28;20044;-63
2023/10/05 01:35:29;;;;;;;12.73;5.97;;;;;;;12.16;75.45;101584.44;4189242;28;20036;-63
2023/10/05 01:37:33;;;;;;;11.50;5.88;;;;;;;12.13;75.15;101586.97;4188154;28;20121;-64
2023/10/05 01:39:43;;;;;;;11.15;5.28;;;;;;;12.08;75.05;101579.03;4191032;28;20438;-63
2023/10/05 01:41:47;;;;;;;17.02;5.53;;;;;;;12.03;75.20;101580.63;4188184;28;20041;-63
2023/10/05 01:43:51;;;;;;;11.93;5.50;;;;;;;12.03;75.44;101585.81;4183879;28;20043;-63
2023/10/05 01:45:54;;;;;;;12.15;5.35;;;;;;;11.98;75.30;101588.31;4191198;28;20525;-63
2023/10/05 01:48:01;;;;;;;9.95;5.90;;;;;;;11.96;75.00;101586.50;4187434;28;20098;-63
2023/10/05 01:50:04;;;;;;;11.02;5.05;;;;;;;11.95;74.89;101579.53;4188647;28;20497;-64
2023/10/05 01:52:08;;;;;;;9.73;4.90;;;;;;;11.93;75.11;101583.78;4185253;28;20047;-63
2023/10/05 01:54:16;;;;;;;11.35;5.10;;;;;;;11.92;74.92;101587.25;4187956;28;20045;-63
2023/10/05 01:56:22;;;;;;;11.18;5.45;;;;;;;11.89;75.01;101588.03;4167863;28;20138;-63
2023/10/05 01:58:27;;;;;;;11.77;5.30;;;;;;;11.89;75.63;101580.22;4184409;28;20033;-63
2023/10/05 02:00:32;;;;;;;9.77;5.32;;;;;;;11.88;75.39;101576.75;4188061;28;20047;-63
2023/10/05 02:02:35;;;;;;;9.70;4.30;;;;;;;11.93;75.36;101583.78;4185504;28;20047;-64
2023/10/05 02:04:44;;;;;;;13.73;5.10;;;;;;;11.88;75.40;101587.19;4184403;28;20131;-63
2023/10/05 02:06:49;;;;;;;9.85;4.60;;;;;;;11.88;75.16;101581.97;4187923;28;20044;-63
2023/10/05 02:08:54;;;;;;;9.45;4.13;;;;;;;11.89;75.39;101580.22;4185247;28;20584;-63
2023/10/05 02:10:57;;;;;;;10.85;4.55;;;;;;;11.87;75.50;101572.38;4190115;28;20032;-63
2023/10/05 02:13:01;;;;;;;13.73;4.40;;;;;;;11.92;75.92;101569.00;4189228;28;20510;-63
2023/10/05 02:15:06;;;;;;;10.98;5.32;;;;;;;11.90;75.50;101568.97;4188008;28;20045;-64
2023/10/05 02:17:10;;;;;;;9.98;4.43;;;;;;;11.92;75.82;101572.50;4194766;28;20042;-63
2023/10/05 02:19:18;;;;;;;10.43;3.97;;;;;;;11.90;75.34;101570.69;4185818;28;20567;-64
2023/10/05 02:21:27;;;;;;;10.02;5.15;;;;;;;11.93;75.42;101573.34;4189810;28;20424;-63
2023/10/05 02:23:34;;;;;;;9.32;4.00;;;;;;;11.91;75.36;101570.72;4178451;28;20055;-63
2023/10/05 02:25:37;;;;;;;11.18;4.40;;;;;;;11.92;75.89;101571.63;4190207;28;20036;-63
2023/10/05 02:27:46;;;;;;;7.68;4.47;;;;;;;11.95;75.34;101571.72;4181559;28;20051;-63
2023/10/05 02:29:50;;;;;;;9.35;4.68;;;;;;;11.92;75.91;101562.06;4190904;28;20043;-63
2023/10/05 02:32:05;;;;;;;11.40;4.82;;;;;;;11.93;75.59;101563.88;4186806;28;20037;-63
2023/10/05 02:34:08;;;;;;;10.35;3.92;;;;;;;11.91;75.80;101567.25;4188577;28;20069;-64
2023/10/05 02:36:17;;;;;;;10.15;4.00;;;;;;;11.87;76.03;101563.66;4187770;28;20379;-63
2023/10/05 02:38:21;;;;;;;9.65;4.97;;;;;;;11.89;76.18;101562.00;4189376;28;20521;-64
2023/10/05 02:40:28;;;;;;;13.27;5.13;;;;;;;11.90;75.91;101560.25;4184672;28;20098;-64
2023/10/05 02:42:31;;;;;;;8.27;4.03;;;;;;;11.89;76.14;101556.78;4179312;28;20043;-63
2023/10/05 02:44:35;;;;;;;7.50;4.00;;;;;;;11.98;75.70;101549.22;4183947;28;20032;-63
2023/10/05 02:46:40;;;;;;;12.15;4.65;;;;;;;11.97;75.62;101552.69;4171558;28;20041;-63
2023/10/05 02:48:43;;;;;;;12.15;4.80;;;;;;;11.88;75.96;101558.50;4186778;28;20064;-63
2023/10/05 02:50:51;;;;;;;12.00;4.90;;;;;;;11.87;75.71;101559.34;4180348;28;20041;-64
2023/10/05 02:52:55;;;;;;;9.00;4.45;;;;;;;11.83;76.16;101560.09;4188003;28;20045;-63
2023/10/05 02:54:58;;;;;;;9.60;4.63;;;;;;;11.83;75.79;101567.91;4185669;28;20072;-63
2023/10/05 02:57:03;;;;;;;7.10;4.13;;;;;;;11.84;76.42;101564.47;4186348;28;20561;-63
2023/10/05 02:59:10;;;;;;;7.03;3.50;;;;;;;11.82;76.06;101560.06;4190572;28;20048;-63
2023/10/05 03:01:12;;;;;;;9.07;4.38;;;;;;;11.85;75.96;101566.22;4169865;28;20033;-63
2023/10/05 03:03:17;;;;;;;10.35;4.35;;;;;;;11.86;76.23;101562.78;4192696;28;20068;-63
2023/10/05 03:05:20;;;;;;;7.47;3.88;;;;;;;11.86;76.23;101567.13;4189836;28;20055;-64
2023/10/05 03:07:25;;;;;;;9.43;4.50;;;;;;;11.86;76.05;101560.19;4188580;28;20033;-63
2023/10/05 03:09:29;;;;;;;7.72;4.63;;;;;;;11.92;75.66;101562.06;4187073;28;20070;-63
2023/10/05 03:11:36;;;;;;;9.00;3.85;;;;;;;11.92;75.60;101561.19;4188386;28;20068;-63
2023/10/05 03:13:39;;;;;;;8.20;4.43;;;;;;;11.86;76.05;101567.13;4188603;28;20029;-63
2023/10/05 03:15:43;;;;;;;7.50;4.15;;;;;;;11.85;76.11;101567.94;4188314;28;20041;-63
2023/10/05 03:17:48;;;;;;;8.85;4.60;;;;;;;11.85;75.66;101571.44;4203357;28;20047;-62
2023/10/05 03:19:53;;;;;;;11.63;4.68;;;;;;;11.85;75.75;101570.56;4189666;28;20044;-63
2023/10/05 03:21:58;;;;;;;9.02;5.05;;;;;;;11.84;75.65;101567.09;4187611;28;20044;-64
2023/10/05 03:24:02;;;;;;;9.80;3.92;;;;;;;11.85;75.73;101566.22;4191146;28;20494;-63
2023/10/05 03:26:07;;;;;;;13.55;4.75;;;;;;;11.78;76.03;101560.81;4185582;28;20344;-63
2023/10/05 03:28:12;;;;;;;7.85;4.18;;;;;;;11.75;76.20;101565.94;4185851;28;20049;-64
2023/10/05 03:30:16;;;;;;;11.52;4.95;;;;;;;11.77;75.99;101567.75;4185107;28;20039;-65
2023/10/05 03:32:25;;;;;;;10.57;4.70;;;;;;;11.83;75.06;101569.66;4183964;28;20037;-65
2023/10/05 03:34:31;;;;;;;14.77;4.97;;;;;;;11.74;75.79;101575.50;4189446;28;20043;-64
2023/10/05 03:36:36;;;;;;;8.52;3.78;;;;;;;11.72;75.20;101573.69;4185207;28;20033;-63
2023/10/05 03:38:39;;;;;;;9.52;4.63;;;;;;;11.68;75.58;101583.13;4189900;28;20047;-63
2023/10/05 03:40:43;;;;;;;10.55;4.28;;;;;;;11.68;76.02;101581.41;4190563;28;20044;-64
2023/10/05 03:42:47;;;;;;;9.80;4.20;;;;;;;11.69;75.50;101574.47;4187549;28;20424;-63
2023/10/05 03:45:00;;;;;;;10.07;3.63;;;;;;;11.68;75.99;101590.94;4186855;28;20036;-64
2023/10/05 03:47:04;;;;;;;8.18;3.55;;;;;;;11.56;76.24;101594.06;4185893;28;20427;-62
2023/10/05 03:49:08;;;;;;;9.75;4.13;;;;;;;11.51;76.81;101593.94;4169199;28;20503;-63
2023/10/05 03:51:16;;;;;;;7.00;3.55;;;;;;;11.53;76.66;101607.91;4189033;28;20043;-64
2023/10/05 03:53:21;;;;;;;7.75;3.80;;;;;;;11.57;76.15;101601.06;4186778;28;20044;-64
2023/10/05 03:55:24;;;;;;;6.78;3.78;;;;;;;11.61;76.07;101602.00;4185779;28;20048;-63
2023/10/05 03:57:31;;;;;;;8.20;3.72;;;;;;;11.60;76.48;101606.34;4184430;28;20040;-63
2023/10/05 03:59:36;;;;;;;9.35;4.22;;;;;;;11.63;76.46;101601.22;4185188;28;20044;-62
2023/10/05 04:01:41;;;;;;;10.57;4.05;;;;;;;11.68;76.55;101603.94;4189754;28;20045;-62
2023/10/05 04:03:44;;;;;;;7.63;3.72;;;;;;;11.75;75.99;101595.47;4179507;28;20029;-62
2023/10/05 04:05:47;;;;;;;9.10;4.40;;;;;;;11.72;76.16;101595.38;4179418;28;20036;-62
2023/10/05 04:07:51;;;;;;;9.52;3.88;;;;;;;11.76;76.10;101586.81;4184930;28;20029;-63
2023/10/05 04:10:01;;;;;;;7.47;3.78;;;;;;;11.76;75.73;101591.16;4179517;28;20518;-63
2023/10/05 04:12:10;;;;;;;11.52;4.63;;;;;;;11.72;75.67;101599.72;4181004;28;20041;-64
2023/10/05 04:14:13;;;;;;;7.53;4.25;;;;;;;11.68;75.51;101590.94;4189640;28;20480;-64
2023/10/05 04:16:26;;;;;;;7.47;3.90;;;;;;;11.69;75.43;101593.56;4186356;28;20199;-65
2023/10/05 04:18:29;;;;;;;10.02;4.05;;;;;;;11.66;75.97;101592.63;4186742;28;20047;-63
2023/10/05 04:20:33;;;;;;;6.65;3.45;;;;;;;11.68;75.66;101590.94;4190319;28;20117;-64
2023/10/05 04:22:38;;;;;;;8.40;3.42;;;;;;;11.72;75.74;101589.31;4186789;28;20055;-63
2023/10/05 04:24:41;;;;;;;9.05;3.72;;;;;;;11.72;76.02;101590.19;4188824;28;20116;-63
2023/10/05 04:26:45;;;;;;;9.23;3.70;;;;;;;11.69;75.60;101590.97;4188429;28;20530;-64
2023/10/05 04:28:52;;;;;;;8.63;4.25;;;;;;;11.67;76.05;101583.97;4188449;28;20041;-63
2023/10/05 04:30:57;;;;;;;8.45;4.20;;;;;;;11.68;76.08;101575.31;4185942;28;20120;-64
2023/10/05 04:33:03;;;;;;;6.80;3.03;;;;;;;11.69;76.00;101574.47;4185808;28;20075;-64
2023/10/05 04:35:14;;;;;;;11.32;4.20;;;;;;;11.69;75.56;101564.03;4186757;28;20486;-63
2023/10/05 04:37:17;;;;;;;9.77;4.05;;;;;;;11.64;75.59;101557.84;4185052;28;20040;-64
2023/10/05 04:39:27;;;;;;;6.18;3.78;;;;;;;11.60;75.69;101574.22;4184016;28;20033;-64
2023/10/05 04:41:33;;;;;;;9.13;4.30;;;;;;;11.61;76.20;101571.66;4185063;28;20063;-63
2023/10/05 04:43:38;;;;;;;8.60;3.42;;;;;;;11.62;75.82;101572.53;4190005;28;20465;-63
2023/10/05 04:45:42;;;;;;;8.30;3.92;;;;;;;11.56;76.22;101570.63;4179800;28;20045;-62
2023/10/05 04:47:46;;;;;;;;;;;;;;;11.45;76.69;101572.06;4186954;28;20505;-64
2023/10/05 04:49:49;;;;;;;7.93;4.13;;;;;;;11.53;76.16;101574.06;4189625;28;19924;-63
2023/10/05 04:51:52;;;;;;;10.07;4.25;;;;;;;11.60;76.08;101575.09;4190376;28;20094;-64
2023/10/05 04:53:54;;;;;;;7.30;3.40;;;;;;;11.56;76.31;101577.56;4187031;28;20115;-64
2023/10/05 04:56:10;;;;;;;9.65;4.32;;;;;;;11.53;75.83;101568.84;4191402;28;20037;-63
2023/10/05 04:58:21;;;;;;;6.55;3.83;;;;;;;11.52;76.11;101564.47;4193758;28;20036;-63
2023/10/05 05:00:49;;;;;;;7.47;3.80;;;;;;;11.59;76.80;101572.44;4188823;28;20040;-62
2023/10/05 05:03:05;;;;;;;8.30;3.28;;;;;;;11.52;76.81;101567.06;4190048;28;20456;-63
2023/10/05 05:05:32;;;;;;;8.73;3.53;;;;;;;11.50;76.30;101571.34;4187017;28;20064;-63
2023/10/05 05:07:36;;;;;;;9.27;3.90;;;;;;;11.47;76.95;101573.00;4188539;28;20037;-64
2023/10/05 05:09:41;;;;;;;5.85;3.10;;;;;;;11.49;76.79;101564.38;4189957;28;20478;-64
2023/10/05 05:11:44;;;;;;;;;;;;;;;11.40;76.93;101566.72;4190222;28;20052;-63
2023/10/05 05:13:48;;;;;;;9.40;4.05;;;;;;;11.51;76.58;101560.09;4188660;28;19959;-64
2023/10/05 05:15:53;;;;;;;8.90;4.25;;;;;;;11.50;76.36;101553.09;4190120;28;20182;-63
2023/10/05 05:17:56;;;;;;;8.10;4.20;;;;;;;11.51;76.55;101549.69;4189470;28;20078;-63
2023/10/05 05:19:59;;;;;;;8.27;4.07;;;;;;;11.52;76.51;101553.16;4187864;28;20040;-63
2023/10/05 05:22:04;;;;;;;8.20;3.97;;;;;;;11.51;76.07;101548.81;4187724;28;20044;-64
2023/10/05 05:24:09;;;;;;;10.30;4.20;;;;;;;11.51;76.51;101549.69;4191333;28;20119;-64
2023/10/05 05:26:15;;;;;;;9.23;3.78;;;;;;;11.49;76.42;101547.84;4187531;28;20041;-63
2023/10/05 05:28:18;;;;;;;7.18;3.90;;;;;;;11.49;76.92;101551.38;4186126;28;20056;-64
2023/10/05 05:30:25;;;;;;;7.70;4.00;;;;;;;11.53;76.64;101552.31;4190964;28;20082;-63
2023/10/05 05:32:29;;;;;;;9.50;3.90;;;;;;;11.51;76.57;101552.28;4186928;28;20053;-64
2023/10/05 05:34:32;;;;;;;9.88;4.00;;;;;;;11.51;76.55;101562.69;4187280;28;20040;-63
2023/10/05 05:36:36;;;;;;;8.85;4.70;;;;;;;11.47;76.64;101563.44;4187654;28;20048;-64
2023/10/05 05:38:39;;;;;;;10.80;3.70;;;;;;;11.48;76.62;101578.25;4190151;28;20041;-63
2023/10/05 05:40:44;;;;;;;12.53;4.00;;;;;;;11.50;75.99;101581.75;4190333;28;20048;-63
2023/10/05 05:42:47;;;;;;;13.50;4.25;;;;;;;11.57;75.51;101576.75;4187612;28;20323;-63
2023/10/05 05:44:52;;;;;;;6.78;3.45;;;;;;;11.53;75.40;101580.97;4189435;28;20037;-63
2023/10/05 05:46:55;;;;;;;8.55;3.97;;;;;;;11.47;76.04;101591.22;4189557;28;20490;-63
2023/10/05 05:49:00;;;;;;;9.82;4.10;;;;;;;11.46;76.26;101592.94;4192032;28;20036;-63
2023/10/05 05:51:10;;;;;;;8.27;3.55;;;;;;;11.46;76.14;101603.38;4188972;28;20044;-64
2023/10/05 05:53:13;;;;;;;6.70;3.50;;;;;;;11.46;76.41;101600.75;4190985;28;21317;-64
2023/10/05 05:55:20;;;;;;;8.98;3.45;;;;;;;11.48;76.32;101590.38;4190743;28;20410;-64
2023/10/05 05:57:23;;;;;;;8.30;4.00;;;;;;;11.51;75.98;101596.56;4192607;28;20072;-64
2023/10/05 05:59:26;;;;;;;7.80;3.28;;;;;;;11.53;76.00;101599.19;4171329;28;20041;-64
2023/10/05 06:01:30;;;;;;;8.25;3.53;;;;;;;11.53;76.71;101602.69;4190193;28;20043;-64
2023/10/05 06:03:33;;;;;;;7.30;4.43;;;;;;;11.53;76.48;101610.53;4188950;28;20448;-63
2023/10/05 06:05:38;;;;;;;14.10;4.03;;;;;;;11.59;75.85;101604.56;4188362;28;20462;-64
2023/10/05 06:07:43;;;;;;;9.30;3.78;;;;;;;11.50;76.21;101606.94;4191510;28;20106;-63
2023/10/05 06:09:46;;;;;;;10.75;3.83;;;;;;;11.46;75.89;101607.66;4189636;28;20041;-63
2023/10/05 06:11:50;;;;;;;6.50;3.50;;;;;;;11.49;76.33;101611.25;4186309;28;20043;-63
2023/10/05 06:13:52;;;;;;;6.35;3.13;;;;;;;11.49;76.28;101618.16;4190001;28;20039;-61
2023/10/05 06:15:55;;;;;;;6.72;2.80;;;;;;;11.54;75.92;101611.38;4189402;28;20040;-63
2023/10/05 06:18:00;;;;;;;6.80;3.08;;;;;;;11.57;76.73;101627.09;4188080;28;20044;-62
2023/10/05 06:20:05;;;;;;;6.50;3.50;;;;;;;11.66;75.67;101632.56;4189500;28;20037;-62
2023/10/05 06:22:09;;;;;;;7.03;3.45;;;;;;;11.63;75.67;101626.41;4188515;28;20048;-64
2023/10/05 06:24:12;;;;;;;7.38;3.63;;;;;;;11.65;75.90;101619.50;4190801;28;20094;-63
2023/10/05 06:26:15;;;;;;;7.80;3.42;;;;;;;11.67;75.88;101620.44;4192572;28;20068;-64
2023/10/05 06:28:18;;;;;;;8.20;3.50;;;;;;;11.69;75.80;101630.03;4188375;28;20131;-64
2023/10/05 06:30:21;;;;;;;8.80;3.60;;;;;;;11.72;76.42;101629.25;4192049;28;20200;-64
2023/10/05 06:32:24;;;;;;;5.68;3.20;;;;;;;11.70;76.24;101616.19;4189798;28;20383;-63
2023/10/05 06:34:27;;;;;;;7.03;3.35;;;;;;;11.70;75.93;101618.78;4190054;28;20107;-64
2023/10/05 06:36:30;;;;;;;5.57;2.78;;;;;;;11.72;76.41;101617.97;4191070;28;20403;-64
2023/10/05 06:38:35;;;;;;;6.07;3.05;;;;;;;11.76;76.58;101612.88;4188842;28;20119;-64
2023/10/05 06:40:38;;;;;;;13.13;4.25;;;;;;;11.84;76.56;101606.16;4191170;28;20055;-64
2023/10/05 06:42:41;;;;;;;9.40;3.53;;;;;;;11.92;75.89;101608.09;4185083;28;20032;-63
2023/10/05 06:44:45;;;;;;;9.38;4.00;;;;;;;11.93;75.40;101604.63;4189305;28;20035;-63
2023/10/05 06:46:48;;;;;;;7.03;3.97;;;;;;;11.85;75.89;101607.03;4189181;28;20127;-62
2023/10/05 06:48:51;;;;;;;12.10;4.30;;;;;;;11.75;76.08;101615.44;4188051;28;20067;-63
2023/10/05 06:50:56;;;;;;;9.02;3.97;;;;;;;11.77;75.64;101614.66;4186120;28;20486;-63
2023/10/05 06:52:59;;;;;;;7.70;3.33;;;;;;;11.80;76.05;101617.34;4186648;28;20036;-63
2023/10/05 06:55:07;;;;;;;10.35;4.05;;;;;;;11.81;76.21;101624.31;4187685;28;20477;-64
2023/10/05 06:57:10;;;;;;;9.10;3.65;;;;;;;11.82;75.86;101623.47;4187593;28;20047;-64
2023/10/05 06:59:13;;;;;;;10.05;3.28;;;;;;;12.01;75.42;101624.00;4186213;28;20064;-64
2023/10/05 07:01:20;;;;;;;7.63;3.95;;;;;;;11.89;75.87;101632.34;4185079;28;20044;-64
2023/10/05 07:03:23;;;;;;;9.27;4.57;;;;;;;11.91;75.89;101635.00;4186690;28;20037;-64
2023/10/05 07:05:27;;;;;;;8.85;4.40;;;;;;;11.87;75.82;101636.59;4189436;28;20091;-63
2023/10/05 07:07:31;;;;;;;9.10;4.10;;;;;;;11.87;76.06;101629.69;4184739;28;20087;-64
2023/10/05 07:09:34;;;;;;;8.93;4.20;;;;;;;11.96;75.92;101636.00;4188959;28;20305;-64
2023/10/05 07:11:38;;;;;;;9.73;3.38;;;;;;;12.00;75.53;101628.34;4188691;28;20058;-64
2023/10/05 07:13:41;;;;;;;8.80;4.30;;;;;;;12.08;75.64;101633.75;4189098;28;20063;-63
2023/10/05 07:15:44;;;;;;;10.35;4.82;;;;;;;12.16;74.70;101629.66;4189119;28;20124;-63
2023/10/05 07:17:48;;;;;;;10.73;4.07;;;;;;;12.09;74.64;101642.44;4188241;28;20139;-63
2023/10/05 07:19:50;;;;;;;10.00;3.60;;;;;;;12.02;75.39;101651.84;4189094;28;20041;-63
2023/10/05 07:21:53;;;;;;;8.95;3.70;;;;;;;12.04;75.20;101647.53;4187060;28;20033;-63
2023/10/05 07:23:56;;;;;;;13.57;4.00;;;;;;;12.00;75.14;101648.28;4186294;28;20132;-63
2023/10/05 07:25:59;;;;;;;8.00;3.45;;;;;;;12.01;74.84;101653.56;4188000;28;20033;-64
2023/10/05 07:28:05;;;;;;;8.93;4.10;;;;;;;12.07;74.85;101663.25;4188527;28;20071;-63
2023/10/05 07:30:09;;;;;;;9.25;4.43;;;;;;;12.09;74.79;101661.59;4189341;28;20518;-63
2023/10/05 07:32:13;;;;;;;15.63;4.63;;;;;;;12.11;74.89;101672.06;4185883;28;20124;-64
2023/10/05 07:34:16;;;;;;;6.60;4.22;;;;;;;12.12;75.68;101668.59;4189250;28;20079;-63
2023/10/05 07:36:19;;;;;;;10.10;4.15;;;;;;;12.25;75.51;101667.22;4192287;28;20202;-63
2023/10/05 07:38:26;;;;;;;9.75;4.35;;;;;;;12.20;74.88;101670.56;4187115;28;20486;-64
2023/10/05 07:40:29;;;;;;;10.38;4.00;;;;;;;12.21;75.36;101669.75;4188816;28;20032;-63
2023/10/05 07:42:33;;;;;;;7.68;3.70;;;;;;;12.13;75.31;101673.84;4187529;28;20033;-64
2023/10/05 07:44:38;;;;;;;16.83;4.82;;;;;;;12.27;74.98;101683.78;4189339;28;20043;-63
2023/10/05 07:46:40;;;;;;;8.13;3.80;;;;;;;12.26;75.00;101682.03;4186133;28;20119;-64
2023/10/05 07:48:45;;;;;;;7.22;3.58;;;;;;;12.31;75.04;101685.63;4187790;28;20047;-64
2023/10/05 07:50:49;;;;;;;11.90;4.30;;;;;;;12.29;74.98;101674.28;4186521;28;20065;-63
2023/10/05 07:52:55;;;;;;;;;;;;;;;12.36;75.17;101689.25;4190184;28;20051;-63
2023/10/05 07:54:58;;;;;;;7.30;3.65;;;;;;;12.33;74.99;101683.97;4188278;28;19920;-63
2023/10/05 07:57:01;;;;;;;11.18;4.32;;;;;;;12.44;74.79;101676.41;4187013;28;20098;-63
2023/10/05 07:59:04;;;;;;;7.47;4.43;;;;;;;12.54;74.61;101674.09;4187653;28;20085;-64
2023/10/05 08:01:08;;;;;;;10.10;4.82;;;;;;;12.70;73.88;101690.13;4167094;28;20041;-63
2023/10/05 08:03:11;;;;;;;14.07;3.75;;;;;;;12.54;74.21;101692.34;4192032;28;20044;-63
2023/10/05 08:05:17;;;;;;;8.80;4.45;;;;;;;12.55;74.52;101686.25;4180099;28;20514;-63
2023/10/05 08:07:20;;;;;;;12.13;5.22;;;;;;;12.61;74.31;101689.91;4179815;28;20037;-63
2023/10/05 08:09:23;;;;;;;9.15;5.00;;;;;;;12.62;74.93;101691.66;4191430;28;20437;-64
2023/10/05 08:11:26;;;;;;;11.65;3.90;;;;;;;12.64;74.62;101676.94;4185645;28;20083;-64
2023/10/05 08:13:28;;;;;;;8.68;4.20;;;;;;;12.64;74.91;101684.75;4188142;28;20057;-63
2023/10/05 08:15:31;;;;;;;10.75;5.15;;;;;;;12.66;74.93;101683.03;4188443;28;20032;-63
2023/10/05 08:17:36;;;;;;;10.57;4.20;;;;;;;12.71;74.88;101673.63;4185522;28;20098;-63
2023/10/05 08:19:39;;;;;;;12.50;4.68;;;;;;;12.77;74.73;101675.50;4186824;28;20502;-64
2023/10/05 08:21:42;;;;;;;11.55;4.55;;;;;;;12.87;74.54;101673.16;4184855;28;20039;-63
2023/10/05 08:23:45;;;;;;;11.95;5.47;;;;;;;13.00;74.40;101673.47;4185668;28;20395;-64
2023/10/05 08:25:50;;;;;;;9.57;4.50;;;;;;;13.00;74.40;101674.34;4192190;28;20398;-64
2023/10/05 08:27:55;;;;;;;8.50;4.50;;;;;;;13.07;74.52;101676.25;4190788;28;20040;-64
2023/10/05 08:30:00;;;;;;;10.77;4.63;;;;;;;13.05;74.33;101677.03;4189993;28;20131;-64
2023/10/05 08:32:06;;;;;;;12.48;4.55;;;;;;;13.09;74.11;101679.75;4190405;28;20036;-64
2023/10/05 08:34:10;;;;;;;10.77;5.35;;;;;;;13.32;73.16;101678.56;4189606;28;20052;-63
2023/10/05 08:36:13;;;;;;;9.55;4.35;;;;;;;13.36;72.72;101675.16;4193289;28;20056;-64
2023/10/05 08:38:16;;;;;;;12.10;5.32;;;;;;;13.35;72.84;101676.91;4190276;28;20033;-63
2023/10/05 08:40:37;;;;;;;13.60;4.82;;;;;;;13.38;73.59;101668.28;4189892;28;20486;-64
2023/10/05 08:42:42;;;;;;;11.95;4.72;;;;;;;13.50;72.82;101665.91;4191503;28;20116;-63
2023/10/05 08:44:45;;;;;;;14.45;5.28;;;;;;;13.43;72.93;101658.78;4191729;28;20037;-64
2023/10/05 08:46:48;;;;;;;10.30;4.53;;;;;;;13.57;72.97;101664.31;4192808;28;20043;-62
2023/10/05 08:48:52;;;;;;;9.98;4.70;;;;;;;13.67;72.93;101670.59;4188278;28;20033;-64
2023/10/05 08:51:06;;;;;;;12.93;4.95;;;;;;;13.70;72.71;101668.94;4190263;28;20127;-64
2023/10/05 08:53:13;;;;;;;9.90;4.50;;;;;;;13.79;72.87;101657.81;4190655;28;20047;-63
2023/10/05 08:55:16;;;;;;;11.82;5.13;;;;;;;13.80;72.09;101670.03;4182801;28;20060;-63
2023/10/05 08:57:20;;;;;;;15.52;5.68;;;;;;;13.99;71.66;101670.38;4181821;28;20060;-65
2023/10/05 08:59:23;;;;;;;12.38;4.03;;;;;;;14.00;71.93;101667.78;4181961;28;20033;-64
2023/10/05 09:01:29;;;;;;;12.02;4.50;;;;;;;14.08;71.88;101665.34;4181874;28;20043;-64
2023/10/05 09:03:36;;;;;;;11.50;4.95;;;;;;;14.20;70.99;101667.31;4182190;28;20049;-63
2023/10/05 09:06:13;;;;;;;11.07;4.93;;;;;;;14.27;71.61;101675.28;4181953;28;20083;-63
2023/10/05 09:08:16;;;;;;;10.43;4.63;;;;;;;14.32;71.21;101671.03;4185128;28;20033;-64
2023/10/05 09:10:26;;;;;;;10.23;4.75;;;;;;;14.41;71.45;101675.56;4189587;28;20045;-64
2023/10/05 09:12:34;;;;;;;10.55;4.40;;;;;;;14.41;71.37;101670.31;4186528;28;20037;-63
2023/10/05 09:14:38;;;;;;;11.98;4.65;;;;;;;14.48;71.41;101677.44;4189175;28;20032;-64
2023/10/05 09:16:41;;;;;;;11.77;4.82;;;;;;;14.67;71.33;101675.16;4190934;28;20028;-63
2023/10/05 09:18:48;;;;;;;11.90;4.65;;;;;;;14.66;70.76;101676.03;4192432;28;20033;-63
2023/10/05 09:20:51;;;;;;;12.00;4.72;;;;;;;14.63;70.93;101682.06;4190558;28;20039;-63
2023/10/05 09:22:56;;;;;;;12.15;4.50;;;;;;;14.66;70.90;101681.25;4172060;28;20154;-64
2023/10/05 09:24:59;;;;;;;7.00;3.92;;;;;;;14.77;71.35;101681.44;4190968;28;20072;-64
2023/10/05 09:27:12;;;;;;;10.80;4.97;;;;;;;14.74;70.43;101678.75;4188951;28;20401;-64
2023/10/05 09:29:20;;;;;;;13.82;5.32;;;;;;;14.94;69.48;101674.72;4190711;28;20049;-63
2023/10/05 09:31:36;;;;;;;12.20;4.30;;;;;;;15.12;69.39;101683.72;4191422;28;20039;-63
2023/10/05 09:33:49;;;;;;;13.05;4.13;;;;;;;15.18;69.99;101684.66;4189994;28;20123;-63
2023/10/05 09:35:52;;;;;;;14.25;4.57;;;;;;;15.27;69.70;101678.69;4189832;28;20040;-63
2023/10/05 09:38:00;;;;;;;10.77;4.28;;;;;;;15.35;69.38;101679.69;4187784;28;20051;-63
2023/10/05 09:40:05;;;;;;;15.63;4.78;;;;;;;15.44;69.60;101688.56;4170158;28;20069;-63
2023/10/05 09:42:08;;;;;;;10.15;4.55;;;;;;;15.53;68.53;101679.06;4192853;28;20040;-63
2023/10/05 09:44:15;;;;;;;11.00;5.82;;;;;;;15.69;68.68;101680.13;4189965;28;20048;-63